Time;durP1;ratioP1;P1;durP2;ratioP2;P2;SDS_P1;SDS_P2;PMS_P1;PMS_P2;Temp;Humidity;BMP_temperature;BMP_pressure;BME280_temperature;BME280_humidity;BME280_pressure;Samples;Min_cycle;Max_cycle;Signal;HPM_P1;HPM_P2
2021/05/05 00:00:25;;;;;;;0.70;0.50;;;;;;;;;;5035843;28;20458;-71
2021/05/05 00:02:52;;;;;;;3.13;1.10;;;;;;;;;;4995170;28;20400;-71
2021/05/05 00:05:18;;;;;;;0.70;0.47;;;;;;;;;;5008077;28;20400;-72
2021/05/05 00:07:46;;;;;;;0.70;0.57;;;;;;;;;;5015461;28;20437;-72
2021/05/05 00:10:13;;;;;;;0.70;0.57;;;;;;;;;;5015572;28;20412;-72
2021/05/05 00:12:40;;;;;;;2.10;1.90;;;;;;;;;;5016345;28;20489;-72
2021/05/05 00:15:12;;;;;;;0.80;0.60;;;;;;;;;;5015442;28;20426;-71
2021/05/05 00:17:38;;;;;;;4.30;0.90;;;;;;;;;;5013250;28;20433;-72
2021/05/05 00:20:05;;;;;;;1.00;0.73;;;;;;;;;;5013849;28;21020;-71
2021/05/05 00:22:31;;;;;;;0.90;0.80;;;;;;;;;;5014121;28;20398;-71
2021/05/05 00:24:57;;;;;;;0.80;0.50;;;;;;;;;;5012686;28;20413;-72
2021/05/05 00:27:23;;;;;;;8.63;1.00;;;;;;;;;;5013742;28;20423;-72
2021/05/05 00:29:52;;;;;;;0.90;0.80;;;;;;;;;;5013665;28;20417;-72
2021/05/05 00:32:18;;;;;;;9.37;1.17;;;;;;;;;;5012783;28;20418;-72
2021/05/05 00:34:44;;;;;;;1.10;0.80;;;;;;;;;;5013723;28;20496;-73
2021/05/05 00:37:10;;;;;;;0.80;0.50;;;;;;;;;;5012672;28;21170;-72
2021/05/05 00:39:36;;;;;;;0.70;0.50;;;;;;;;;;5013514;28;20548;-71
2021/05/05 00:42:02;;;;;;;0.70;0.60;;;;;;;;;;4994381;28;20763;-72
2021/05/05 00:44:28;;;;;;;0.70;0.50;;;;;;;;;;5006588;28;20395;-72
2021/05/05 00:46:53;;;;;;;0.70;0.50;;;;;;;;;;5013164;28;20398;-73
2021/05/05 00:49:19;;;;;;;0.93;0.60;;;;;;;;;;5001935;28;20457;-73
2021/05/05 00:51:45;;;;;;;0.70;0.60;;;;;;;;;;4994221;28;20373;-72
2021/05/05 00:54:11;;;;;;;0.70;0.60;;;;;;;;;;5011008;28;21012;-72
2021/05/05 00:56:37;;;;;;;0.80;0.60;;;;;;;;;;5013157;28;20428;-72
2021/05/05 00:59:03;;;;;;;3.47;0.93;;;;;;;;;;5027902;28;20519;-71
2021/05/05 01:01:30;;;;;;;0.70;0.50;;;;;;;;;;5033139;28;20511;-72
2021/05/05 01:03:56;;;;;;;0.70;0.53;;;;;;;;;;5016480;28;20389;-71
2021/05/05 01:06:22;;;;;;;0.70;0.40;;;;;;;;;;5002434;28;20561;-72
2021/05/05 01:08:48;;;;;;;2.70;0.83;;;;;;;;;;5012856;28;20890;-71
2021/05/05 01:11:14;;;;;;;1.10;0.60;;;;;;;;;;5013105;28;20417;-71
2021/05/05 01:13:41;;;;;;;0.97;0.70;;;;;;;;;;5013486;28;20536;-71
2021/05/05 01:16:07;;;;;;;1.37;1.23;;;;;;;;;;5016064;28;20387;-71
2021/05/05 01:18:33;;;;;;;0.80;0.60;;;;;;;;;;5013072;28;20823;-70
2021/05/05 01:21:00;;;;;;;0.80;0.50;;;;;;;;;;5012769;28;21024;-72
2021/05/05 01:23:27;;;;;;;1.00;0.70;;;;;;;;;;5012241;28;20383;-71
2021/05/05 01:25:53;;;;;;;0.80;0.60;;;;;;;;;;5013211;28;20401;-71
2021/05/05 01:28:19;;;;;;;0.70;0.50;;;;;;;;;;5012599;28;20785;-70
2021/05/05 01:30:47;;;;;;;0.70;0.50;;;;;;;;;;5011281;28;20446;-70
2021/05/05 01:33:13;;;;;;;0.70;0.40;;;;;;;;;;5011512;28;20723;-71
2021/05/05 01:35:39;;;;;;;0.70;0.50;;;;;;;;;;5012818;28;20377;-70
2021/05/05 01:38:05;;;;;;;0.80;0.67;;;;;;;;;;5012386;28;20411;-70
2021/05/05 01:40:33;;;;;;;0.70;0.50;;;;;;;;;;5012090;28;20484;-71
2021/05/05 01:43:00;;;;;;;1.63;0.60;;;;;;;;;;5012584;28;20412;-71
2021/05/05 01:45:26;;;;;;;0.80;0.60;;;;;;;;;;5012823;28;20447;-71
2021/05/05 01:47:56;;;;;;;1.07;0.67;;;;;;;;;;5012393;28;20443;-71
2021/05/05 01:50:22;;;;;;;0.70;0.50;;;;;;;;;;5011953;28;20399;-70
2021/05/05 01:52:48;;;;;;;0.97;0.50;;;;;;;;;;5011261;28;20414;-70
2021/05/05 01:55:14;;;;;;;0.70;0.50;;;;;;;;;;5011104;28;20413;-71
2021/05/05 01:57:43;;;;;;;0.80;0.50;;;;;;;;;;5010939;28;20528;-70
2021/05/05 02:00:11;;;;;;;0.80;0.60;;;;;;;;;;5011633;28;20452;-72
2021/05/05 02:02:37;;;;;;;0.80;0.60;;;;;;;;;;5012096;28;20772;-71
2021/05/05 02:05:04;;;;;;;0.73;0.57;;;;;;;;;;5012289;28;20420;-72
2021/05/05 02:07:30;;;;;;;0.70;0.60;;;;;;;;;;5012190;28;20399;-72
2021/05/05 02:09:56;;;;;;;0.70;0.40;;;;;;;;;;5011760;28;20413;-72
2021/05/05 02:12:22;;;;;;;0.70;0.50;;;;;;;;;;5012021;28;20462;-72
2021/05/05 02:14:48;;;;;;;0.73;0.50;;;;;;;;;;5012344;28;20475;-72
2021/05/05 02:17:14;;;;;;;1.00;0.73;;;;;;;;;;5010565;28;20495;-72
2021/05/05 02:19:43;;;;;;;1.20;1.07;;;;;;;;;;5010416;28;20483;-72
2021/05/05 02:22:09;;;;;;;0.80;0.60;;;;;;;;;;5011773;28;20419;-71
2021/05/05 02:24:35;;;;;;;0.87;0.80;;;;;;;;;;5011592;28;20981;-72
2021/05/05 02:27:01;;;;;;;0.80;0.70;;;;;;;;;;5010569;28;20845;-71
2021/05/05 02:29:27;;;;;;;0.90;0.50;;;;;;;;;;5031007;22;20495;-74
2021/05/05 02:31:54;;;;;;;0.80;0.50;;;;;;;;;;5029850;28;20386;-74
2021/05/05 02:34:20;;;;;;;0.70;0.50;;;;;;;;;;5030311;28;20408;-72
2021/05/05 02:36:46;;;;;;;0.80;0.60;;;;;;;;;;5029957;28;20431;-72
2021/05/05 02:39:12;;;;;;;0.70;0.50;;;;;;;;;;5029247;28;20447;-73
2021/05/05 02:41:42;;;;;;;1.97;0.70;;;;;;;;;;5031181;28;20376;-70
2021/05/05 02:44:08;;;;;;;0.70;0.50;;;;;;;;;;5031144;28;20459;-71
2021/05/05 02:46:34;;;;;;;0.90;0.60;;;;;;;;;;5046849;22;20604;-70
2021/05/05 02:49:00;;;;;;;0.87;0.70;;;;;;;;;;5023736;28;20557;-70
2021/05/05 02:51:26;;;;;;;0.90;0.60;;;;;;;;;;5020131;28;20413;-69
2021/05/05 02:53:52;;;;;;;0.70;0.57;;;;;;;;;;5030607;28;20465;-71
2021/05/05 02:56:18;;;;;;;1.37;0.83;;;;;;;;;;5030246;28;20514;-71
2021/05/05 02:58:44;;;;;;;0.80;0.63;;;;;;;;;;5036239;28;20442;-70
2021/05/05 03:01:10;;;;;;;0.80;0.80;;;;;;;;;;5033524;28;20507;-72
2021/05/05 03:03:36;;;;;;;0.80;0.50;;;;;;;;;;5030860;28;20462;-70
2021/05/05 03:06:02;;;;;;;0.90;0.70;;;;;;;;;;5030644;28;20442;-71
2021/05/05 03:08:28;;;;;;;0.80;0.70;;;;;;;;;;5030927;28;20912;-71
2021/05/05 03:10:54;;;;;;;0.70;0.60;;;;;;;;;;5030634;28;20474;-70
2021/05/05 03:13:20;;;;;;;0.80;0.50;;;;;;;;;;5033253;28;20435;-70
2021/05/05 03:15:46;;;;;;;0.80;0.50;;;;;;;;;;5034125;28;20420;-72
2021/05/05 03:18:12;;;;;;;0.70;0.40;;;;;;;;;;5036063;28;20395;-70
2021/05/05 03:20:38;;;;;;;1.00;0.77;;;;;;;;;;5032371;28;20426;-71
2021/05/05 03:23:04;;;;;;;0.70;0.40;;;;;;;;;;5029009;28;20976;-69
2021/05/05 03:25:30;;;;;;;0.70;0.50;;;;;;;;;;5030439;28;20503;-69
2021/05/05 03:27:56;;;;;;;0.70;0.50;;;;;;;;;;5030353;28;20528;-71
2021/05/05 03:30:22;;;;;;;0.70;0.50;;;;;;;;;;5030529;28;20412;-69
2021/05/05 03:32:48;;;;;;;0.97;0.83;;;;;;;;;;5034489;28;20403;-71
2021/05/05 03:35:14;;;;;;;0.70;0.50;;;;;;;;;;5034028;28;20413;-71
2021/05/05 03:37:40;;;;;;;0.70;0.40;;;;;;;;;;5033919;28;20454;-71
2021/05/05 03:40:07;;;;;;;1.17;0.83;;;;;;;;;;5033410;28;20517;-70
2021/05/05 03:42:33;;;;;;;0.80;0.77;;;;;;;;;;5034223;28;21010;-70
2021/05/05 03:44:59;;;;;;;2.20;1.23;;;;;;;;;;5034191;28;20436;-69
2021/05/05 03:47:25;;;;;;;1.00;0.70;;;;;;;;;;5033667;28;20497;-70
2021/05/05 03:49:51;;;;;;;0.77;0.47;;;;;;;;;;5033258;28;20416;-69
2021/05/05 03:52:17;;;;;;;0.70;0.50;;;;;;;;;;5030264;28;20449;-69
2021/05/05 03:54:43;;;;;;;0.70;0.60;;;;;;;;;;5033866;28;20491;-70
2021/05/05 03:57:09;;;;;;;1.00;0.73;;;;;;;;;;5033489;28;20401;-70
2021/05/05 03:59:35;;;;;;;2.30;0.60;;;;;;;;;;5026346;28;20843;-70
2021/05/05 04:02:01;;;;;;;1.10;0.57;;;;;;;;;;5033913;28;20419;-69
2021/05/05 04:04:27;;;;;;;0.70;0.50;;;;;;;;;;5033533;28;20492;-69
2021/05/05 04:06:53;;;;;;;0.70;0.53;;;;;;;;;;5033608;28;20499;-69
2021/05/05 04:09:19;;;;;;;0.70;0.40;;;;;;;;;;5032733;28;20455;-70
2021/05/05 04:11:45;;;;;;;1.10;0.73;;;;;;;;;;5033590;28;20411;-69
2021/05/05 04:14:11;;;;;;;0.90;0.60;;;;;;;;;;5033289;28;20385;-68
2021/05/05 04:16:37;;;;;;;6.97;0.93;;;;;;;;;;5033422;28;20888;-70
2021/05/05 04:19:03;;;;;;;0.80;0.60;;;;;;;;;;5032071;28;20542;-69
2021/05/05 04:21:29;;;;;;;0.80;0.60;;;;;;;;;;5033106;28;20393;-71
2021/05/05 04:23:55;;;;;;;0.70;0.50;;;;;;;;;;5033286;28;20394;-71
2021/05/05 04:26:21;;;;;;;0.70;0.50;;;;;;;;;;5033076;28;20765;-72
2021/05/05 04:28:48;;;;;;;0.80;0.60;;;;;;;;;;5033006;28;20414;-71
2021/05/05 04:31:14;;;;;;;0.80;0.60;;;;;;;;;;5032676;28;20404;-70
2021/05/05 04:33:41;;;;;;;0.70;0.50;;;;;;;;;;5032826;28;20495;-71
2021/05/05 04:36:07;;;;;;;1.43;0.90;;;;;;;;;;5040738;28;20407;-70
2021/05/05 04:38:33;;;;;;;1.80;1.20;;;;;;;;;;5033271;28;20437;-71
2021/05/05 04:40:59;;;;;;;0.80;0.60;;;;;;;;;;5033876;28;20422;-71
2021/05/05 04:43:25;;;;;;;14.50;1.20;;;;;;;;;;5035095;28;20406;-71
2021/05/05 04:45:51;;;;;;;1.53;0.60;;;;;;;;;;5033514;28;21627;-70
2021/05/05 04:48:17;;;;;;;0.70;0.50;;;;;;;;;;5028220;28;20894;-72
2021/05/05 04:50:43;;;;;;;0.70;0.43;;;;;;;;;;5040800;28;20400;-72
2021/05/05 04:53:09;;;;;;;0.70;0.57;;;;;;;;;;5052051;28;20538;-72
2021/05/05 04:55:35;;;;;;;4.83;1.20;;;;;;;;;;5052373;28;20493;-71
2021/05/05 04:58:01;;;;;;;2.97;0.70;;;;;;;;;;5046631;28;21068;-72
2021/05/05 05:00:27;;;;;;;1.53;1.03;;;;;;;;;;5039756;28;20447;-73
2021/05/05 05:02:53;;;;;;;1.00;0.80;;;;;;;;;;5037550;28;20378;-70
2021/05/05 05:05:21;;;;;;;0.80;0.70;;;;;;;;;;5041477;28;20423;-70
2021/05/05 05:07:47;;;;;;;0.80;0.80;;;;;;;;;;5040743;28;20431;-71
2021/05/05 05:10:13;;;;;;;0.70;0.47;;;;;;;;;;5044147;28;20414;-70
2021/05/05 05:12:39;;;;;;;1.37;0.70;;;;;;;;;;5051641;28;20409;-69
2021/05/05 05:15:06;;;;;;;0.80;0.47;;;;;;;;;;5051878;28;20502;-71
2021/05/05 05:17:32;;;;;;;0.70;0.50;;;;;;;;;;5045885;28;20537;-72
2021/05/05 05:19:58;;;;;;;1.23;0.70;;;;;;;;;;5043944;28;20676;-72
2021/05/05 05:22:24;;;;;;;0.80;0.60;;;;;;;;;;5052527;28;20898;-72
2021/05/05 05:24:50;;;;;;;0.70;0.50;;;;;;;;;;5034428;28;20425;-73
2021/05/05 05:27:16;;;;;;;0.70;0.50;;;;;;;;;;5028411;28;20839;-70
2021/05/05 05:29:42;;;;;;;0.70;0.40;;;;;;;;;;5032193;28;20423;-71
2021/05/05 05:32:08;;;;;;;2.50;0.80;;;;;;;;;;5032042;28;20417;-71
2021/05/05 05:34:35;;;;;;;4.93;0.87;;;;;;;;;;5032107;28;20827;-70
2021/05/05 05:37:01;;;;;;;1.43;0.70;;;;;;;;;;5034032;28;20847;-72
2021/05/05 05:39:27;;;;;;;0.80;0.60;;;;;;;;;;5032911;28;20498;-70
2021/05/05 05:41:53;;;;;;;4.40;0.70;;;;;;;;;;5032362;28;20725;-70
2021/05/05 05:44:19;;;;;;;1.07;0.97;;;;;;;;;;5030535;28;20384;-70
2021/05/05 05:46:45;;;;;;;0.80;0.50;;;;;;;;;;5027750;28;20498;-70
2021/05/05 05:49:11;;;;;;;0.70;0.50;;;;;;;;;;5025088;28;20428;-70
2021/05/05 05:51:38;;;;;;;0.70;0.40;;;;;;;;;;5028344;28;20415;-70
2021/05/05 05:54:04;;;;;;;0.70;0.50;;;;;;;;;;5029834;28;20508;-69
2021/05/05 05:56:30;;;;;;;0.70;0.40;;;;;;;;;;5037109;28;20444;-70
2021/05/05 05:58:56;;;;;;;0.80;0.60;;;;;;;;;;5037188;28;20430;-70
2021/05/05 06:01:23;;;;;;;0.83;0.70;;;;;;;;;;5036951;28;20501;-71
2021/05/05 06:03:48;;;;;;;0.70;0.50;;;;;;;;;;5039237;28;20531;-72
2021/05/05 06:06:15;;;;;;;0.90;0.63;;;;;;;;;;5032998;28;20505;-71
2021/05/05 06:08:41;;;;;;;0.80;0.70;;;;;;;;;;5036450;28;20377;-71
2021/05/05 06:11:07;;;;;;;0.70;0.60;;;;;;;;;;5036374;28;20428;-71
2021/05/05 06:13:33;;;;;;;0.97;0.50;;;;;;;;;;5034152;28;21894;-71
2021/05/05 06:15:59;;;;;;;1.00;0.70;;;;;;;;;;5032219;28;20418;-69
2021/05/05 06:18:25;;;;;;;3.13;1.80;;;;;;;;;;5032265;28;20170;-67
2021/05/05 06:20:51;;;;;;;0.70;0.40;;;;;;;;;;5040915;28;20421;-69
2021/05/05 06:23:17;;;;;;;1.00;0.63;;;;;;;;;;5035691;28;20495;-68
2021/05/05 06:25:43;;;;;;;0.70;0.50;;;;;;;;;;5032248;28;20892;-70
2021/05/05 06:28:09;;;;;;;0.80;0.60;;;;;;;;;;5031736;28;20426;-69
2021/05/05 06:30:35;;;;;;;0.80;0.70;;;;;;;;;;5031308;28;20504;-69
2021/05/05 06:33:01;;;;;;;6.80;1.90;;;;;;;;;;5031142;28;20568;-67
2021/05/05 06:35:27;;;;;;;0.70;0.50;;;;;;;;;;5031296;28;20395;-67
2021/05/05 06:37:53;;;;;;;0.70;0.50;;;;;;;;;;5030999;28;20413;-65
2021/05/05 06:40:19;;;;;;;0.80;0.60;;;;;;;;;;5030334;28;20533;-67
2021/05/05 06:42:46;;;;;;;0.70;0.50;;;;;;;;;;5031456;28;20379;-68
2021/05/05 06:45:12;;;;;;;2.00;1.00;;;;;;;;;;5030658;28;20478;-70
2021/05/05 06:47:39;;;;;;;0.90;0.77;;;;;;;;;;5030909;28;20424;-67
2021/05/05 06:50:06;;;;;;;0.80;0.60;;;;;;;;;;5031687;28;20419;-69
2021/05/05 06:52:32;;;;;;;1.10;0.60;;;;;;;;;;5032796;28;20415;-68
2021/05/05 06:54:58;;;;;;;0.70;0.50;;;;;;;;;;5032272;28;20547;-70
2021/05/05 06:57:24;;;;;;;0.70;0.50;;;;;;;;;;5032367;28;20499;-70
2021/05/05 06:59:50;;;;;;;1.77;1.60;;;;;;;;;;5037526;28;20472;-68
2021/05/05 07:02:16;;;;;;;1.93;1.17;;;;;;;;;;5031524;28;20399;-69
2021/05/05 07:04:42;;;;;;;1.23;0.90;;;;;;;;;;5032863;28;20390;-67
2021/05/05 07:07:08;;;;;;;1.10;0.70;;;;;;;;;;5035659;28;20435;-68
2021/05/05 07:09:34;;;;;;;0.77;0.47;;;;;;;;;;5035127;28;20447;-69
2021/05/05 07:12:00;;;;;;;0.73;0.40;;;;;;;;;;5035549;28;20419;-69
2021/05/05 07:14:26;;;;;;;1.90;1.10;;;;;;;;;;5034993;28;20414;-70
2021/05/05 07:16:51;;;;;;;0.80;0.70;;;;;;;;;;5034725;28;20419;-69
2021/05/05 07:19:17;;;;;;;0.70;0.50;;;;;;;;;;5034756;28;20998;-67
2021/05/05 07:21:43;;;;;;;5.50;0.90;;;;;;;;;;5034905;28;20417;-69
2021/05/05 07:24:09;;;;;;;2.00;0.60;;;;;;;;;;5034894;28;20439;-68
2021/05/05 07:26:35;;;;;;;2.83;0.70;;;;;;;;;;5034665;28;20439;-67
2021/05/05 07:29:01;;;;;;;0.70;0.53;;;;;;;;;;5033695;28;20420;-69
2021/05/05 07:31:27;;;;;;;0.70;0.50;;;;;;;;;;5034805;28;20383;-68
2021/05/05 07:33:55;;;;;;;0.80;0.60;;;;;;;;;;5035042;28;20534;-69
2021/05/05 07:36:26;;;;;;;0.80;0.80;;;;;;;;;;5034174;28;20429;-69
2021/05/05 07:42:17;;;;;;;0.80;0.80;;;;;;;;;;5029015;28;20440;-69
2021/05/05 07:45:06;;;;;;;0.77;0.60;;;;;;;;;;5033952;28;20509;-67
2021/05/05 07:47:27;;;;;;;0.70;0.50;;;;;;;;;;5033610;28;20425;-68
2021/05/05 07:49:55;;;;;;;0.70;0.50;;;;;;;;;;5033691;28;20383;-67
2021/05/05 07:52:21;;;;;;;0.90;0.60;;;;;;;;;;5036749;28;20390;-68
2021/05/05 07:54:47;;;;;;;0.80;0.70;;;;;;;;;;5038300;28;20737;-67
2021/05/05 07:57:14;;;;;;;0.90;0.60;;;;;;;;;;5037514;28;20401;-68
2021/05/05 07:59:42;;;;;;;0.70;0.50;;;;;;;;;;5036719;28;20436;-69
2021/05/05 08:02:08;;;;;;;0.90;0.70;;;;;;;;;;5034681;28;20460;-69
2021/05/05 08:04:34;;;;;;;0.70;0.60;;;;;;;;;;5033865;28;20874;-69
2021/05/05 08:07:01;;;;;;;0.70;0.50;;;;;;;;;;5034858;28;21121;-69
2021/05/05 08:09:27;;;;;;;0.80;0.73;;;;;;;;;;5032760;28;20413;-69
2021/05/05 08:11:53;;;;;;;0.90;0.80;;;;;;;;;;5033950;28;20406;-69
2021/05/05 08:14:20;;;;;;;1.13;0.70;;;;;;;;;;5034591;28;20446;-69
2021/05/05 08:16:46;;;;;;;0.80;0.67;;;;;;;;;;5032695;28;20511;-69
2021/05/05 08:19:13;;;;;;;0.80;0.70;;;;;;;;;;5030728;28;20445;-68
2021/05/05 08:21:39;;;;;;;0.70;0.50;;;;;;;;;;5028726;28;20475;-68
2021/05/05 08:24:05;;;;;;;1.00;0.53;;;;;;;;;;5028481;28;20871;-68
2021/05/05 08:26:31;;;;;;;1.43;0.60;;;;;;;;;;5012870;28;20417;-69
2021/05/05 08:28:58;;;;;;;1.10;0.77;;;;;;;;;;5028397;28;20409;-68
2021/05/05 08:31:24;;;;;;;3.80;1.33;;;;;;;;;;5031084;28;20394;-67
2021/05/05 08:33:50;;;;;;;0.83;0.60;;;;;;;;;;5031619;28;20447;-69
2021/05/05 08:36:16;;;;;;;17.43;1.23;;;;;;;;;;5031508;28;20483;-68
2021/05/05 08:38:42;;;;;;;0.93;0.83;;;;;;;;;;5031155;28;20415;-69
2021/05/05 08:41:12;;;;;;;2.50;0.77;;;;;;;;;;5031469;28;20481;-70
2021/05/05 08:43:39;;;;;;;0.70;0.50;;;;;;;;;;5031895;28;20770;-67
2021/05/05 08:46:08;;;;;;;0.70;0.50;;;;;;;;;;5032933;28;20417;-67
2021/05/05 08:48:36;;;;;;;0.70;0.50;;;;;;;;;;5024929;28;20396;-68
2021/05/05 08:51:03;;;;;;;0.70;0.40;;;;;;;;;;5012016;28;20413;-68
2021/05/05 08:53:29;;;;;;;0.77;0.63;;;;;;;;;;5018435;28;20491;-67
2021/05/05 08:55:55;;;;;;;0.80;0.60;;;;;;;;;;5031515;28;20507;-67
2021/05/05 08:58:21;;;;;;;0.70;0.60;;;;;;;;;;5040039;28;20398;-69
2021/05/05 09:00:47;;;;;;;0.70;0.50;;;;;;;;;;5032435;28;20505;-70
2021/05/05 09:03:13;;;;;;;0.77;0.60;;;;;;;;;;5031895;28;20458;-69
2021/05/05 09:05:49;;;;;;;5.30;2.80;;;;;;;;;;5031509;28;20412;-70
2021/05/05 09:08:15;;;;;;;0.70;0.40;;;;;;;;;;5032280;28;20450;-69
2021/05/05 09:11:00;;;;;;;1.00;0.90;;;;;;;;;;5042674;28;20417;-69
2021/05/05 09:13:45;;;;;;;0.80;0.60;;;;;;;;;;5030547;28;20388;-72
2021/05/05 09:16:12;;;;;;;0.83;0.70;;;;;;;;;;5029330;28;20399;-69
2021/05/05 09:19:14;;;;;;;0.70;0.43;;;;;;;;;;5031233;28;20494;-70
2021/05/05 09:21:43;;;;;;;0.70;0.50;;;;;;;;;;4980196;28;21112;-69
2021/05/05 09:24:28;;;;;;;1.33;1.00;;;;;;;;;;5023061;28;20387;-68
2021/05/05 09:26:56;;;;;;;0.77;0.53;;;;;;;;;;5023912;28;20435;-68
2021/05/05 09:29:36;;;;;;;0.80;0.60;;;;;;;;;;5033292;28;20410;-69
2021/05/05 09:32:02;;;;;;;0.80;0.63;;;;;;;;;;5029847;28;20412;-70
2021/05/05 09:34:28;;;;;;;0.70;0.50;;;;;;;;;;5031191;28;20429;-70
2021/05/05 09:36:59;;;;;;;0.80;0.50;;;;;;;;;;5030808;28;20424;-70
2021/05/05 09:39:26;;;;;;;0.80;0.60;;;;;;;;;;5029352;28;20459;-69
2021/05/05 09:41:52;;;;;;;0.80;0.70;;;;;;;;;;5029425;28;20947;-69
2021/05/05 09:44:18;;;;;;;0.80;0.50;;;;;;;;;;5029173;28;20413;-69
2021/05/05 09:46:46;;;;;;;0.70;0.50;;;;;;;;;;5029167;28;20431;-71
2021/05/05 09:49:32;;;;;;;0.90;0.50;;;;;;;;;;5028275;28;20397;-71
2021/05/05 09:52:03;;;;;;;1.83;0.50;;;;;;;;;;5028815;28;20503;-69
2021/05/05 09:54:48;;;;;;;0.90;0.50;;;;;;;;;;5029159;28;20542;-69
2021/05/05 09:57:16;;;;;;;1.33;0.63;;;;;;;;;;5029547;28;20434;-70
2021/05/05 09:59:56;;;;;;;0.70;0.60;;;;;;;;;;5037429;28;20426;-69
2021/05/05 10:02:22;;;;;;;0.87;0.50;;;;;;;;;;5029145;28;20912;-71
2021/05/05 10:05:06;;;;;;;0.80;0.70;;;;;;;;;;5028781;28;20423;-70
2021/05/05 10:08:03;;;;;;;0.70;0.53;;;;;;;;;;5023520;28;20394;-71
2021/05/05 10:10:33;;;;;;;0.80;0.60;;;;;;;;;;4993303;28;20813;-70
2021/05/05 10:13:00;;;;;;;0.90;0.70;;;;;;;;;;5009213;28;20373;-70
2021/05/05 10:15:27;;;;;;;1.43;0.90;;;;;;;;;;5009892;28;20413;-71
2021/05/05 10:17:56;;;;;;;0.83;0.77;;;;;;;;;;5037902;28;20437;-69
2021/05/05 10:20:26;;;;;;;0.80;0.70;;;;;;;;;;5035247;28;20483;-70
2021/05/05 10:22:56;;;;;;;0.70;0.50;;;;;;;;;;5029524;28;20405;-68
2021/05/05 10:25:22;;;;;;;1.37;0.80;;;;;;;;;;5028999;28;20455;-70
2021/05/05 10:27:48;;;;;;;1.47;1.03;;;;;;;;;;5028977;28;20965;-70
2021/05/05 10:30:16;;;;;;;0.80;0.60;;;;;;;;;;5030006;28;20387;-70
2021/05/05 10:32:45;;;;;;;0.70;0.50;;;;;;;;;;5034301;28;20422;-69
2021/05/05 10:35:14;;;;;;;0.70;0.40;;;;;;;;;;5027572;28;20966;-70
2021/05/05 10:37:46;;;;;;;0.70;0.50;;;;;;;;;;5028789;28;20428;-68
2021/05/05 10:40:33;;;;;;;0.80;0.60;;;;;;;;;;5027864;28;20490;-69
2021/05/05 10:43:00;;;;;;;4.10;1.17;;;;;;;;;;5028434;28;20426;-70
2021/05/05 10:45:27;;;;;;;0.80;0.50;;;;;;;;;;5028288;28;21241;-68
2021/05/05 10:48:07;;;;;;;0.70;0.50;;;;;;;;;;5024383;28;20460;-70
2021/05/05 10:50:51;;;;;;;0.90;0.50;;;;;;;;;;5027644;28;20805;-70
2021/05/05 10:53:21;;;;;;;1.03;0.90;;;;;;;;;;5025758;28;20483;-70
2021/05/05 10:55:49;;;;;;;4.33;2.30;;;;;;;;;;5027573;28;20397;-69
2021/05/05 10:58:19;;;;;;;1.67;1.47;;;;;;;;;;5031249;28;20845;-71
2021/05/05 11:00:45;;;;;;;0.80;0.50;;;;;;;;;;5027783;28;20533;-70
2021/05/05 11:03:11;;;;;;;0.70;0.60;;;;;;;;;;5027903;28;20378;-71
2021/05/05 11:05:38;;;;;;;0.77;0.53;;;;;;;;;;5028468;28;20821;-70
2021/05/05 11:08:09;;;;;;;0.80;0.60;;;;;;;;;;5028209;28;20530;-69
2021/05/05 11:10:35;;;;;;;0.80;0.50;;;;;;;;;;5027982;28;20415;-67
2021/05/05 11:13:03;;;;;;;0.70;0.50;;;;;;;;;;5028071;28;20808;-69
2021/05/05 11:15:41;;;;;;;0.90;0.70;;;;;;;;;;5029628;28;20397;-70
2021/05/05 11:18:28;;;;;;;0.70;0.53;;;;;;;;;;5028758;28;20844;-69
2021/05/05 11:21:10;;;;;;;0.90;0.57;;;;;;;;;;5028537;28;20956;-68
2021/05/05 11:23:38;;;;;;;0.70;0.50;;;;;;;;;;5028248;28;20542;-69
2021/05/05 11:26:17;;;;;;;0.70;0.50;;;;;;;;;;5028193;28;20397;-68
2021/05/05 11:28:59;;;;;;;0.70;0.50;;;;;;;;;;5026847;28;20384;-69
2021/05/05 11:31:44;;;;;;;0.80;0.50;;;;;;;;;;5026848;28;20468;-70
2021/05/05 11:34:10;;;;;;;0.97;0.60;;;;;;;;;;5027845;28;20406;-70
2021/05/05 11:36:36;;;;;;;1.43;1.30;;;;;;;;;;5031989;28;21021;-68
2021/05/05 11:39:03;;;;;;;0.70;0.50;;;;;;;;;;5025715;28;20383;-68
2021/05/05 11:41:29;;;;;;;33.90;7.93;;;;;;;;;;5028216;28;20385;-69
2021/05/05 11:43:56;;;;;;;0.70;0.50;;;;;;;;;;5028695;28;20865;-69
2021/05/05 11:46:22;;;;;;;0.70;0.50;;;;;;;;;;5026205;28;20426;-69
2021/05/05 11:48:48;;;;;;;0.70;0.50;;;;;;;;;;5027928;28;20378;-69
2021/05/05 11:51:22;;;;;;;0.70;0.40;;;;;;;;;;5028376;28;20386;-70
2021/05/05 11:53:49;;;;;;;0.70;0.50;;;;;;;;;;5030981;28;20491;-69
2021/05/05 11:56:19;;;;;;;0.83;0.60;;;;;;;;;;5032986;28;20410;-69
2021/05/05 11:58:56;;;;;;;0.93;0.70;;;;;;;;;;5045109;28;20891;-70
2021/05/05 12:01:48;;;;;;;2.50;0.60;;;;;;;;;;5052527;28;20388;-68
2021/05/05 12:04:18;;;;;;;0.73;0.47;;;;;;;;;;5048655;28;20419;-70
2021/05/05 12:06:48;;;;;;;1.83;1.73;;;;;;;;;;5045698;28;20425;-70
2021/05/05 12:09:21;;;;;;;0.70;0.40;;;;;;;;;;5032890;28;20405;-70
2021/05/05 12:11:47;;;;;;;0.70;0.40;;;;;;;;;;5032310;28;20481;-70
2021/05/05 12:14:26;;;;;;;0.70;0.50;;;;;;;;;;5031856;28;20921;-70
2021/05/05 12:16:56;;;;;;;0.80;0.50;;;;;;;;;;5032682;28;20439;-68
2021/05/05 12:19:22;;;;;;;0.87;0.50;;;;;;;;;;5032945;28;20826;-69
2021/05/05 12:21:48;;;;;;;0.73;0.47;;;;;;;;;;5032850;28;20956;-67
2021/05/05 12:24:16;;;;;;;0.70;0.50;;;;;;;;;;5030649;28;20534;-68
2021/05/05 12:26:42;;;;;;;0.70;0.50;;;;;;;;;;5011287;28;20425;-66
2021/05/05 12:29:09;;;;;;;0.70;0.50;;;;;;;;;;5024280;28;20410;-68
2021/05/05 12:31:37;;;;;;;2.60;0.50;;;;;;;;;;5031649;28;20970;-69
2021/05/05 12:36:48;;;;;;;0.70;0.43;;;;;;;;;;5038261;28;20518;-73
2021/05/05 12:39:22;;;;;;;0.80;0.70;;;;;;;;;;5041955;28;20805;-72
2021/05/05 12:41:51;;;;;;;0.70;0.50;;;;;;;;;;5028329;28;20435;-73
2021/05/05 12:44:17;;;;;;;0.70;0.50;;;;;;;;;;5026020;28;20467;-73
2021/05/05 12:47:06;;;;;;;0.80;0.67;;;;;;;;;;5014299;28;20583;-73
2021/05/05 12:49:38;;;;;;;0.77;0.57;;;;;;;;;;5009794;28;20422;-73
2021/05/05 12:52:05;;;;;;;0.80;0.70;;;;;;;;;;5021534;28;20769;-75
2021/05/05 12:54:42;;;;;;;6.10;0.97;;;;;;;;;;5025557;28;20405;-72
2021/05/05 12:57:15;;;;;;;0.70;0.43;;;;;;;;;;5030935;28;20410;-74
2021/05/05 12:59:41;;;;;;;0.70;0.40;;;;;;;;;;5031237;28;20457;-73
2021/05/05 13:02:11;;;;;;;0.70;0.40;;;;;;;;;;5027584;28;20445;-72
2021/05/05 13:04:37;;;;;;;0.70;0.50;;;;;;;;;;5030791;28;20397;-71
2021/05/05 13:07:03;;;;;;;0.70;0.60;;;;;;;;;;5032125;28;20377;-73
2021/05/05 13:09:31;;;;;;;0.70;0.47;;;;;;;;;;5030448;28;20542;-72
2021/05/05 13:12:41;;;;;;;0.70;0.60;;;;;;;;;;5023254;28;20422;-72
2021/05/05 13:15:10;;;;;;;1.30;0.80;;;;;;;;;;5020868;28;20401;-73
2021/05/05 13:17:52;;;;;;;0.90;0.50;;;;;;;;;;5023703;28;20410;-74
2021/05/05 13:31:25;;;;;;;0.70;0.50;;;;;;;;;;5024016;28;20472;-74
2021/05/05 13:34:04;;;;;;;1.57;1.47;;;;;;;;;;5023542;28;20413;-72
2021/05/05 13:36:45;;;;;;;1.10;0.63;;;;;;;;;;5024438;28;20433;-73
2021/05/05 13:39:11;;;;;;;0.80;0.60;;;;;;;;;;5027280;28;20407;-69
2021/05/05 13:41:37;;;;;;;0.70;0.40;;;;;;;;;;5030955;28;20473;-72
2021/05/05 13:44:08;;;;;;;1.93;1.10;;;;;;;;;;5022647;28;20405;-72
2021/05/05 13:52:01;;;;;;;0.90;0.50;;;;;;;;;;5031379;28;20427;-74
2021/05/05 13:54:30;;;;;;;1.93;0.60;;;;;;;;;;5030383;28;20413;-72
2021/05/05 13:57:02;;;;;;;0.80;0.70;;;;;;;;;;5032301;28;20458;-73
2021/05/05 13:59:28;;;;;;;0.90;0.57;;;;;;;;;;5024226;28;20471;-72
2021/05/05 14:01:54;;;;;;;0.80;0.50;;;;;;;;;;5021511;28;20410;-70
2021/05/05 14:04:20;;;;;;;1.23;1.03;;;;;;;;;;5024894;28;20397;-72
2021/05/05 14:06:48;;;;;;;0.70;0.57;;;;;;;;;;5021980;28;20414;-72
2021/05/05 14:09:14;;;;;;;1.40;0.90;;;;;;;;;;5021999;28;20439;-72
2021/05/05 14:11:40;;;;;;;0.70;0.53;;;;;;;;;;5018304;28;20901;-72
2021/05/05 14:14:06;;;;;;;1.03;0.70;;;;;;;;;;5021922;28;20455;-71
2021/05/05 14:16:32;;;;;;;0.80;0.60;;;;;;;;;;5023898;28;20410;-71
2021/05/05 14:18:59;;;;;;;1.10;0.50;;;;;;;;;;5028802;28;20908;-70
2021/05/05 14:21:25;;;;;;;0.80;0.60;;;;;;;;;;5030656;28;20412;-71
2021/05/05 14:23:52;;;;;;;0.80;0.73;;;;;;;;;;5030463;28;20369;-73
2021/05/05 14:26:18;;;;;;;0.70;0.40;;;;;;;;;;5029057;28;20419;-74
2021/05/05 14:28:44;;;;;;;0.97;0.87;;;;;;;;;;5022068;28;21017;-73
2021/05/05 14:31:13;;;;;;;0.70;0.50;;;;;;;;;;5017796;28;20466;-74
2021/05/05 14:33:40;;;;;;;0.70;0.57;;;;;;;;;;5019968;28;20467;-72
2021/05/05 14:36:07;;;;;;;0.70;0.60;;;;;;;;;;5023373;28;20441;-73
2021/05/05 14:38:36;;;;;;;0.70;0.40;;;;;;;;;;5017767;28;20418;-73
2021/05/05 14:41:07;;;;;;;0.70;0.50;;;;;;;;;;5023312;28;20436;-73
2021/05/05 14:43:59;;;;;;;0.70;0.40;;;;;;;;;;5022712;28;20441;-72
2021/05/05 14:48:52;;;;;;;2.00;0.80;;;;;;;;;;5014640;28;20393;-71
2021/05/05 14:51:18;;;;;;;0.80;0.50;;;;;;;;;;5028750;28;20789;-73
2021/05/05 14:53:44;;;;;;;0.70;0.50;;;;;;;;;;5029501;28;20392;-73
2021/05/05 14:56:11;;;;;;;0.70;0.50;;;;;;;;;;5029228;28;20399;-76
2021/05/05 14:59:13;;;;;;;2.53;1.53;;;;;;;;;;5028716;28;21051;-73
2021/05/05 15:01:29;;;;;;;1.33;0.70;;;;;;;;;;5029245;28;20424;-74
2021/05/05 15:03:58;;;;;;;0.70;0.50;;;;;;;;;;5016366;28;20420;-73
2021/05/05 15:09:30;;;;;;;8.07;2.73;;;;;;;;;;5027554;28;20501;-74
2021/05/05 15:20:23;;;;;;;0.80;0.60;;;;;;;;;;5010678;28;20487;-74
2021/05/05 15:28:06;;;;;;;0.80;0.50;;;;;;;;;;5027014;28;20481;-73
2021/05/05 15:35:59;;;;;;;0.90;0.70;;;;;;;;;;4994962;28;20423;-74